Time;durP1;ratioP1;P1;durP2;ratioP2;P2;SDS_P1;SDS_P2;PMS_P1;PMS_P2;Temp;Humidity;BMP_temperature;BMP_pressure;BME280_temperature;BME280_humidity;BME280_pressure;Samples;Min_cycle;Max_cycle;Signal;HPM_P1;HPM_P2
2024/01/10 00:02:24;;;;;;;44.03;33.40;;;-2.80;99.90;;;;;;5069508;28;20692;-65
2024/01/10 00:04:53;;;;;;;47.47;33.92;;;-2.90;99.90;;;;;;5052842;28;20229;-67
2024/01/10 00:07:19;;;;;;;53.25;39.38;;;-2.90;99.90;;;;;;5053336;28;20044;-64
2024/01/10 00:09:45;;;;;;;48.42;34.35;;;-2.80;99.90;;;;;;5070228;28;20048;-65
2024/01/10 00:12:11;;;;;;;45.42;33.50;;;-3.00;99.90;;;;;;5053073;28;20446;-65
2024/01/10 00:14:37;;;;;;;47.22;33.78;;;-3.00;99.90;;;;;;5053168;28;20036;-65
2024/01/10 00:17:03;;;;;;;49.95;36.58;;;-2.90;99.90;;;;;;5069781;28;20039;-65
2024/01/10 00:19:29;;;;;;;48.03;33.08;;;-2.90;99.90;;;;;;5071379;28;20036;-65
2024/01/10 00:21:54;;;;;;;45.88;34.60;;;-3.10;99.90;;;;;;5071145;28;20035;-64
2024/01/10 00:24:20;;;;;;;47.70;36.65;;;-3.00;99.90;;;;;;5070597;28;20329;-65
2024/01/10 00:26:46;;;;;;;43.90;31.05;;;-3.10;99.90;;;;;;5070034;28;20454;-65
2024/01/10 00:29:12;;;;;;;45.50;34.30;;;-3.10;99.90;;;;;;5069854;28;20162;-64
2024/01/10 00:31:37;;;;;;;45.90;34.67;;;-3.10;99.90;;;;;;5053136;28;20078;-65
2024/01/10 00:34:03;;;;;;;47.35;35.45;;;-3.10;99.90;;;;;;5053886;28;20048;-64
2024/01/10 00:36:29;;;;;;;39.85;30.10;;;-3.10;99.90;;;;;;5069698;28;20051;-65
2024/01/10 00:38:55;;;;;;;44.63;32.65;;;-3.00;99.90;;;;;;5025326;28;20044;-64
2024/01/10 00:41:21;;;;;;;46.83;34.47;;;-3.10;99.90;;;;;;5052216;28;20501;-65
2024/01/10 00:43:46;;;;;;;52.67;37.72;;;-3.10;99.90;;;;;;5053153;28;20127;-66
2024/01/10 00:46:12;;;;;;;49.28;34.72;;;-3.20;99.90;;;;;;5053139;28;20129;-66
2024/01/10 00:48:38;;;;;;;48.47;35.80;;;-3.20;99.90;;;;;;5069675;28;20384;-65
2024/01/10 00:51:08;;;;;;;46.88;34.67;;;-3.30;99.90;;;;;;5052984;28;20051;-65
2024/01/10 00:53:34;;;;;;;51.78;37.05;;;-3.30;99.90;;;;;;5054112;28;20044;-65
2024/01/10 00:56:03;;;;;;;52.92;39.35;;;-3.30;99.90;;;;;;5052807;28;20121;-65
2024/01/10 00:58:29;;;;;;;49.03;35.33;;;-3.20;99.90;;;;;;5069640;28;20044;-65
2024/01/10 01:00:54;;;;;;;50.53;36.95;;;-3.20;99.90;;;;;;5035488;28;20042;-66
2024/01/10 01:03:20;;;;;;;50.30;37.10;;;-3.20;99.90;;;;;;5070119;28;20075;-65
2024/01/10 01:05:46;;;;;;;50.00;35.17;;;-3.40;99.90;;;;;;5053461;28;20136;-64
2024/01/10 01:08:12;;;;;;;52.25;36.30;;;-3.30;99.90;;;;;;5055105;28;20051;-65
2024/01/10 01:10:38;;;;;;;54.75;39.85;;;-3.30;99.90;;;;;;5052731;28;20106;-64
2024/01/10 01:13:03;;;;;;;56.67;40.30;;;-3.30;99.90;;;;;;5068524;28;20372;-65
2024/01/10 01:15:29;;;;;;;61.85;42.28;;;-3.40;99.90;;;;;;5069315;28;20048;-64
2024/01/10 01:17:55;;;;;;;55.28;39.53;;;-3.30;99.90;;;;;;5068648;28;20039;-65
2024/01/10 01:20:21;;;;;;;53.08;37.20;;;-3.20;99.90;;;;;;5053497;28;20051;-65
2024/01/10 01:22:46;;;;;;;53.25;37.15;;;-3.20;99.90;;;;;;5069496;28;20619;-64
2024/01/10 01:25:12;;;;;;;49.65;33.70;;;-3.20;99.90;;;;;;5069001;28;20089;-65
2024/01/10 01:27:38;;;;;;;46.33;31.42;;;-3.20;99.90;;;;;;5068252;28;20051;-65
2024/01/10 01:30:04;;;;;;;40.80;27.73;;;-3.20;99.90;;;;;;5069447;28;20604;-64
2024/01/10 01:32:30;;;;;;;40.22;26.50;;;-3.20;99.90;;;;;;5051548;28;20651;-65
2024/01/10 01:34:56;;;;;;;50.75;35.92;;;-3.20;99.90;;;;;;5069416;28;20109;-64
2024/01/10 01:37:21;;;;;;;46.78;32.90;;;-3.20;99.90;;;;;;5035034;28;20044;-65
2024/01/10 01:39:47;;;;;;;38.85;26.88;;;-3.10;99.90;;;;;;5052344;28;20036;-65
2024/01/10 01:42:13;;;;;;;52.13;35.17;;;-3.00;99.90;;;;;;5045454;28;20040;-66
2024/01/10 01:44:39;;;;;;;45.25;31.40;;;-3.20;99.90;;;;;;5038719;28;20262;-65
2024/01/10 01:47:05;;;;;;;47.47;33.78;;;-3.20;99.90;;;;;;5034848;28;20097;-65
2024/01/10 01:49:30;;;;;;;43.95;30.50;;;-3.00;99.90;;;;;;5052996;28;20534;-66
2024/01/10 01:51:56;;;;;;;52.58;36.85;;;-3.20;99.90;;;;;;5052960;28;20142;-65
2024/01/10 01:54:23;;;;;;;41.28;29.55;;;-3.20;99.90;;;;;;5051745;28;20516;-65
2024/01/10 01:56:49;;;;;;;55.67;39.05;;;-3.30;99.90;;;;;;5069130;28;20218;-65
2024/01/10 01:59:15;;;;;;;43.90;31.63;;;-3.20;99.90;;;;;;5069050;28;20086;-65
2024/01/10 02:01:41;;;;;;;54.00;37.13;;;-3.20;99.90;;;;;;5072940;28;20115;-66
2024/01/10 02:04:07;;;;;;;53.45;36.30;;;-3.20;99.90;;;;;;5055586;28;20231;-66
2024/01/10 02:06:33;;;;;;;43.15;29.80;;;-3.30;99.90;;;;;;5046675;28;20059;-65
2024/01/10 02:08:59;;;;;;;53.35;36.70;;;-3.00;99.90;;;;;;5038531;28;20048;-66
2024/01/10 02:11:26;;;;;;;50.40;35.35;;;-3.30;99.90;;;;;;5072146;28;20081;-65
2024/01/10 02:13:54;;;;;;;60.05;41.17;;;-3.30;99.90;;;;;;5055106;28;20044;-65
2024/01/10 02:16:22;;;;;;;54.53;37.53;;;-3.10;99.90;;;;;;5072803;28;20191;-66
2024/01/10 02:18:49;;;;;;;53.95;37.22;;;-3.20;99.90;;;;;;5073155;28;20132;-67
2024/01/10 02:21:15;;;;;;;50.33;33.63;;;-3.20;99.90;;;;;;5055728;28;20046;-65
2024/01/10 02:23:41;;;;;;;51.33;35.33;;;-3.40;99.90;;;;;;5050715;28;20032;-65
2024/01/10 02:26:07;;;;;;;56.65;40.72;;;-3.40;99.90;;;;;;5055046;28;20279;-65
2024/01/10 02:28:33;;;;;;;49.22;32.72;;;-3.40;99.90;;;;;;5071813;28;20607;-65
2024/01/10 02:31:00;;;;;;;56.15;39.35;;;-3.40;99.90;;;;;;5055276;28;20045;-64
2024/01/10 02:33:25;;;;;;;46.60;29.70;;;-3.40;99.90;;;;;;5055661;28;20532;-65
2024/01/10 02:35:51;;;;;;;56.60;35.60;;;-3.30;99.90;;;;;;5055353;28;20128;-65
2024/01/10 02:38:20;;;;;;;58.15;40.90;;;-3.20;99.90;;;;;;5055512;28;20505;-65
2024/01/10 02:40:46;;;;;;;61.13;43.30;;;-3.40;99.90;;;;;;5039182;28;20537;-65
2024/01/10 02:43:12;;;;;;;53.38;36.47;;;-3.40;99.90;;;;;;5070922;28;20088;-66
2024/01/10 02:45:37;;;;;;;68.35;47.88;;;-3.40;99.90;;;;;;5054749;28;20046;-64
2024/01/10 02:48:03;;;;;;;62.38;41.35;;;-3.40;99.90;;;;;;5055328;28;20035;-66
2024/01/10 02:50:29;;;;;;;65.57;47.20;;;-3.40;99.90;;;;;;5055207;28;20051;-65
2024/01/10 02:52:55;;;;;;;64.68;44.40;;;-3.40;99.90;;;;;;5037347;28;20713;-68
2024/01/10 02:55:21;;;;;;;60.53;40.67;;;-3.40;99.90;;;;;;5071845;28;20036;-65
2024/01/10 02:57:47;;;;;;;61.13;41.58;;;-3.30;99.90;;;;;;5055291;28;20040;-64
2024/01/10 03:00:13;;;;;;;66.85;47.55;;;-3.40;99.90;;;;;;5071824;28;20320;-64
2024/01/10 03:02:38;;;;;;;71.32;47.25;;;-3.30;99.90;;;;;;5072026;28;20031;-64
2024/01/10 03:05:04;;;;;;;62.78;39.78;;;-3.30;99.90;;;;;;5037870;28;20358;-65
2024/01/10 03:07:30;;;;;;;70.32;47.70;;;-3.30;99.90;;;;;;5071568;28;20052;-65
2024/01/10 03:09:56;;;;;;;71.10;49.20;;;-3.40;99.90;;;;;;5054299;28;20500;-66
2024/01/10 03:12:22;;;;;;;69.18;45.50;;;-3.40;99.90;;;;;;5053243;28;20051;-65
2024/01/10 03:14:48;;;;;;;66.70;45.65;;;-3.50;99.90;;;;;;5053579;28;20224;-66
2024/01/10 03:17:14;;;;;;;63.33;44.83;;;-3.30;99.90;;;;;;5071718;28;20359;-66
2024/01/10 03:19:43;;;;;;;55.42;38.72;;;-3.50;99.90;;;;;;5038480;28;20453;-65
2024/01/10 03:22:10;;;;;;;65.50;46.33;;;-3.30;99.90;;;;;;5071079;28;20174;-66
2024/01/10 03:24:36;;;;;;;68.95;47.95;;;-3.50;99.90;;;;;;5052831;28;20036;-64
2024/01/10 03:27:02;;;;;;;59.25;38.88;;;-3.40;99.90;;;;;;5054014;28;20047;-65
2024/01/10 03:29:28;;;;;;;52.72;35.95;;;-3.60;99.90;;;;;;5070487;28;20257;-65
2024/01/10 03:31:53;;;;;;;57.72;38.25;;;-3.50;99.90;;;;;;5071493;28;20040;-66
2024/01/10 03:34:19;;;;;;;50.20;34.53;;;-3.40;99.90;;;;;;5070731;28;20685;-66
2024/01/10 03:36:45;;;;;;;58.92;38.17;;;-3.30;99.90;;;;;;5053039;28;20593;-66
2024/01/10 03:39:11;;;;;;;52.22;36.22;;;-3.30;99.90;;;;;;5054154;28;20043;-65
2024/01/10 03:41:38;;;;;;;62.85;43.78;;;-3.30;99.90;;;;;;5053547;28;20505;-65
2024/01/10 03:44:04;;;;;;;56.47;39.60;;;-3.20;99.90;;;;;;5070279;28;20123;-65
2024/01/10 03:46:29;;;;;;;61.20;40.70;;;-3.40;99.90;;;;;;5070924;28;20139;-64
2024/01/10 03:48:55;;;;;;;50.33;32.88;;;-3.50;99.90;;;;;;5053972;28;20328;-65
2024/01/10 03:51:21;;;;;;;64.75;45.67;;;-3.20;99.90;;;;;;5070430;28;20110;-65
2024/01/10 03:53:48;;;;;;;57.40;39.83;;;-3.40;99.90;;;;;;5053619;28;20067;-65
2024/01/10 03:56:14;;;;;;;67.20;44.42;;;-3.40;99.90;;;;;;5053579;28;20078;-65
2024/01/10 03:58:40;;;;;;;58.15;39.38;;;-3.30;99.90;;;;;;5054107;28;20489;-64
2024/01/10 04:01:07;;;;;;;66.55;44.67;;;-3.40;99.90;;;;;;5053594;28;20081;-64
2024/01/10 04:03:34;;;;;;;51.95;33.50;;;-3.50;99.90;;;;;;5054002;28;20031;-64
2024/01/10 04:06:01;;;;;;;67.65;49.08;;;-3.50;99.90;;;;;;5069506;28;20052;-66
2024/01/10 04:08:26;;;;;;;67.47;45.83;;;-3.40;99.90;;;;;;5037362;28;20660;-65
2024/01/10 04:10:52;;;;;;;68.15;47.40;;;-3.50;99.90;;;;;;5069948;28;20279;-64
2024/01/10 04:13:18;;;;;;;68.78;46.42;;;-3.40;99.90;;;;;;5052814;28;20040;-66
2024/01/10 04:15:43;;;;;;;66.32;45.50;;;-3.50;99.90;;;;;;5070087;28;20040;-65
2024/01/10 04:18:09;;;;;;;60.33;40.17;;;-3.60;99.90;;;;;;5070934;28;20059;-65
2024/01/10 04:20:35;;;;;;;63.10;43.10;;;-3.60;99.90;;;;;;5069453;28;20070;-65
2024/01/10 04:23:01;;;;;;;60.58;37.78;;;-3.40;99.90;;;;;;5069457;28;20040;-66
2024/01/10 04:25:27;;;;;;;67.57;43.33;;;-3.60;99.90;;;;;;5053410;28;20040;-65
2024/01/10 04:27:53;;;;;;;64.90;43.33;;;-3.50;99.90;;;;;;5053234;28;20295;-65
2024/01/10 04:30:18;;;;;;;47.03;30.88;;;-3.40;99.90;;;;;;5053120;28;20040;-65
2024/01/10 04:32:44;;;;;;;52.90;35.72;;;-3.50;99.90;;;;;;5053093;28;21101;-65
2024/01/10 04:35:10;;;;;;;57.72;41.55;;;-3.30;99.90;;;;;;5052410;28;20271;-66
2024/01/10 04:37:36;;;;;;;67.28;47.25;;;-3.30;99.90;;;;;;5070282;28;20051;-65
2024/01/10 04:40:01;;;;;;;63.38;43.72;;;-3.60;99.90;;;;;;5053179;28;20065;-65
2024/01/10 04:42:27;;;;;;;63.03;43.20;;;-3.60;99.90;;;;;;5053034;28;20101;-65
2024/01/10 04:44:53;;;;;;;73.47;47.97;;;-3.30;99.90;;;;;;5069894;28;20071;-65
2024/01/10 04:47:19;;;;;;;67.88;48.95;;;-3.50;99.90;;;;;;5053663;28;20079;-66
2024/01/10 04:49:44;;;;;;;65.18;44.13;;;-3.60;99.90;;;;;;5069253;28;20078;-65
2024/01/10 04:52:10;;;;;;;78.93;51.40;;;-3.50;99.90;;;;;;5069580;28;20458;-65
2024/01/10 04:54:36;;;;;;;80.70;52.83;;;-3.40;99.90;;;;;;5069361;28;20035;-65
2024/01/10 04:57:02;;;;;;;76.63;50.88;;;-3.50;99.90;;;;;;5035900;28;20181;-66
2024/01/10 04:59:27;;;;;;;73.40;49.20;;;-3.60;99.90;;;;;;5069342;28;20592;-65
2024/01/10 05:01:53;;;;;;;70.60;44.60;;;-3.50;99.90;;;;;;5069627;28;20094;-66
2024/01/10 05:04:19;;;;;;;77.75;52.47;;;-3.70;99.90;;;;;;5053336;28;20035;-66
2024/01/10 05:06:45;;;;;;;64.55;40.70;;;-3.50;99.90;;;;;;5046128;28;20059;-65
2024/01/10 05:09:10;;;;;;;72.05;47.20;;;-3.40;99.90;;;;;;5052897;28;20051;-66
2024/01/10 05:11:37;;;;;;;71.55;48.17;;;-3.50;99.90;;;;;;5052574;28;20051;-65
2024/01/10 05:14:03;;;;;;;70.35;45.63;;;-3.70;99.90;;;;;;5040683;28;20051;-65
2024/01/10 05:16:29;;;;;;;67.78;47.90;;;-3.70;99.90;;;;;;5052929;28;20075;-64
2024/01/10 05:18:55;;;;;;;75.82;48.60;;;-3.60;99.90;;;;;;5069487;28;20611;-65
2024/01/10 05:21:21;;;;;;;84.35;55.50;;;-3.40;99.90;;;;;;5068932;28;20395;-65
2024/01/10 05:23:47;;;;;;;68.85;47.88;;;-3.50;99.90;;;;;;5023754;28;20605;-65
2024/01/10 05:26:13;;;;;;;68.88;48.05;;;-3.50;99.90;;;;;;5068887;28;20067;-65
2024/01/10 05:28:38;;;;;;;69.38;48.65;;;-3.50;99.90;;;;;;5052779;28;20040;-65
2024/01/10 05:31:04;;;;;;;60.28;41.92;;;-3.60;99.90;;;;;;5072138;28;20368;-65
2024/01/10 05:33:30;;;;;;;65.43;45.80;;;-3.50;99.90;;;;;;5035829;28;20036;-66
2024/01/10 05:35:58;;;;;;;60.38;42.85;;;-3.70;99.90;;;;;;5055605;28;20044;-65
2024/01/10 05:38:27;;;;;;;61.80;41.15;;;-3.50;99.90;;;;;;5056188;28;21089;-65
2024/01/10 05:40:53;;;;;;;63.67;40.53;;;-3.70;99.90;;;;;;5038419;28;20081;-66
2024/01/10 05:43:18;;;;;;;62.75;40.63;;;-3.40;99.90;;;;;;5039825;28;20044;-66
2024/01/10 05:45:44;;;;;;;48.53;33.05;;;-3.70;99.90;;;;;;5040421;28;20043;-66
2024/01/10 05:48:10;;;;;;;63.00;41.22;;;-3.30;99.90;;;;;;5040319;28;20070;-66
2024/01/10 05:50:36;;;;;;;61.15;42.60;;;-3.30;99.90;;;;;;5055613;28;20067;-64
2024/01/10 05:53:02;;;;;;;56.75;40.88;;;-3.30;99.90;;;;;;5055050;28;20401;-65
2024/01/10 05:55:28;;;;;;;59.00;41.05;;;-3.40;99.90;;;;;;5055589;28;20450;-65
2024/01/10 05:57:54;;;;;;;55.35;39.58;;;-3.60;99.90;;;;;;5054441;28;20093;-64
2024/01/10 06:00:20;;;;;;;48.63;32.60;;;-3.60;99.90;;;;;;5073282;28;20063;-65
2024/01/10 06:02:46;;;;;;;55.50;38.05;;;-3.60;99.90;;;;;;5048117;28;20149;-65
2024/01/10 06:05:12;;;;;;;57.20;38.55;;;-3.50;99.90;;;;;;5038935;28;20560;-65
2024/01/10 06:07:39;;;;;;;46.15;31.15;;;-3.70;99.90;;;;;;5039425;28;20184;-65
2024/01/10 06:10:05;;;;;;;59.20;39.63;;;-3.60;99.90;;;;;;5059517;28;20040;-65
2024/01/10 06:12:32;;;;;;;57.55;37.83;;;-3.40;99.90;;;;;;5039220;28;20496;-64
2024/01/10 06:14:58;;;;;;;37.72;24.75;;;-3.60;99.90;;;;;;5071539;28;20061;-65
2024/01/10 06:17:24;;;;;;;49.83;35.83;;;-3.50;99.90;;;;;;5039529;28;20079;-65
2024/01/10 06:19:50;;;;;;;51.60;33.70;;;-3.60;99.90;;;;;;5072104;28;20475;-67
2024/01/10 06:22:16;;;;;;;33.53;20.20;;;-3.60;99.90;;;;;;5072190;28;20055;-65
2024/01/10 06:24:42;;;;;;;47.05;29.00;;;-3.50;99.90;;;;;;5054779;28;20208;-66
2024/01/10 06:27:09;;;;;;;47.47;30.63;;;-3.60;99.90;;;;;;5071259;28;20036;-65
2024/01/10 06:29:36;;;;;;;56.90;37.30;;;-3.50;99.90;;;;;;5054494;28;20079;-65
2024/01/10 06:32:03;;;;;;;55.28;35.42;;;-3.70;99.90;;;;;;5072179;28;20309;-66
2024/01/10 06:34:29;;;;;;;52.70;35.22;;;-3.80;99.90;;;;;;5071952;28;20044;-65
2024/01/10 06:37:01;;;;;;;62.42;38.33;;;-3.70;99.90;;;;;;5026650;28;20059;-66
2024/01/10 06:39:27;;;;;;;69.03;42.08;;;-3.80;99.90;;;;;;5054975;28;20604;-65
2024/01/10 06:41:55;;;;;;;62.40;40.35;;;-3.90;99.90;;;;;;5053825;28;20032;-66
2024/01/10 06:44:20;;;;;;;58.83;35.72;;;-3.80;99.90;;;;;;5072073;28;20113;-65
2024/01/10 06:46:46;;;;;;;62.58;37.38;;;-3.70;99.90;;;;;;5070568;28;20067;-65
2024/01/10 06:49:12;;;;;;;61.22;36.78;;;-3.90;99.90;;;;;;5038538;28;20074;-65
2024/01/10 06:51:39;;;;;;;56.42;29.58;;;-3.80;99.90;;;;;;5071405;28;20044;-65
2024/01/10 06:54:05;;;;;;;68.32;39.92;;;-4.00;99.90;;;;;;5053654;28;20644;-65
2024/01/10 06:56:34;;;;;;;60.72;35.10;;;-3.90;99.90;;;;;;5054230;28;20414;-65
2024/01/10 06:59:01;;;;;;;65.47;39.03;;;-3.90;99.90;;;;;;5055415;28;20597;-65
2024/01/10 07:01:27;;;;;;;63.67;35.25;;;-4.00;99.90;;;;;;5072080;28;20358;-65
2024/01/10 07:03:57;;;;;;;72.03;39.33;;;-4.00;99.90;;;;;;5070510;28;20146;-65
2024/01/10 07:06:23;;;;;;;74.63;41.33;;;-4.10;99.90;;;;;;5071314;28;20128;-65
2024/01/10 07:08:50;;;;;;;73.78;34.97;;;-4.10;99.90;;;;;;5071982;28;20059;-63
2024/01/10 07:11:16;;;;;;;70.05;33.85;;;-4.00;99.90;;;;;;5055758;28;20499;-64
2024/01/10 07:13:42;;;;;;;79.40;36.03;;;-4.10;99.90;;;;;;5072793;28;20603;-65
2024/01/10 07:16:09;;;;;;;73.63;35.05;;;-4.20;99.90;;;;;;5072221;28;20035;-65
2024/01/10 07:18:35;;;;;;;69.63;31.75;;;-4.20;99.90;;;;;;5053205;28;20569;-65
2024/01/10 07:21:00;;;;;;;70.07;33.72;;;-4.40;99.90;;;;;;5025032;28;20032;-65
2024/01/10 07:23:27;;;;;;;78.28;36.15;;;-4.30;99.90;;;;;;5071299;28;20032;-65
2024/01/10 07:25:52;;;;;;;66.15;29.65;;;-4.40;99.90;;;;;;5071620;28;20047;-65
2024/01/10 07:28:19;;;;;;;76.13;34.10;;;-4.30;99.90;;;;;;5037761;28;20036;-66
2024/01/10 07:30:46;;;;;;;73.90;34.85;;;-4.30;99.90;;;;;;5070380;28;20115;-65
2024/01/10 07:33:12;;;;;;;68.75;30.85;;;-4.40;99.90;;;;;;5070303;28;20537;-66
2024/01/10 07:35:38;;;;;;;59.75;25.85;;;-4.40;99.90;;;;;;5053500;28;20063;-66
2024/01/10 07:38:08;;;;;;;79.68;34.95;;;-4.50;99.90;;;;;;5070888;28;20640;-64
2024/01/10 07:40:35;;;;;;;75.35;33.60;;;-4.50;99.90;;;;;;5077918;27;20040;-65
2024/01/10 07:43:01;;;;;;;69.47;32.20;;;-4.40;99.90;;;;;;5055940;28;20101;-65
2024/01/10 07:45:27;;;;;;;66.10;30.45;;;-4.40;99.90;;;;;;5070382;28;20043;-64
2024/01/10 07:47:53;;;;;;;58.53;25.55;;;-4.50;99.90;;;;;;5041946;28;20040;-66
2024/01/10 07:50:19;;;;;;;62.85;27.95;;;-4.50;99.90;;;;;;5052899;28;20094;-65
2024/01/10 07:52:49;;;;;;;54.40;25.00;;;-4.50;99.90;;;;;;5054885;28;20377;-64
2024/01/10 07:55:15;;;;;;;51.58;23.60;;;-4.30;99.90;;;;;;5070144;28;20047;-65
2024/01/10 07:57:44;;;;;;;50.78;21.70;;;-4.30;99.90;;;;;;5069876;28;20052;-64
2024/01/10 08:00:10;;;;;;;47.35;19.95;;;-4.30;99.90;;;;;;5053256;28;20073;-64
2024/01/10 08:02:39;;;;;;;50.42;22.63;;;-4.10;99.90;;;;;;5043305;28;20410;-64
2024/01/10 08:05:09;;;;;;;40.42;18.77;;;-4.20;99.90;;;;;;5054489;28;20537;-65
2024/01/10 08:07:39;;;;;;;61.95;27.73;;;-4.00;99.90;;;;;;5056130;28;20497;-65
2024/01/10 08:10:09;;;;;;;56.72;26.00;;;-4.20;99.90;;;;;;5055284;28;20321;-65
2024/01/10 08:12:36;;;;;;;44.85;19.33;;;-4.20;99.90;;;;;;5055172;28;20311;-65
2024/01/10 08:15:02;;;;;;;61.00;26.90;;;-4.20;99.90;;;;;;5038440;28;20117;-66
2024/01/10 08:17:28;;;;;;;53.67;21.98;;;-4.00;99.90;;;;;;5054271;28;20043;-65
2024/01/10 08:19:54;;;;;;;53.83;25.40;;;-4.20;99.90;;;;;;5055131;28;20519;-65
2024/01/10 08:22:20;;;;;;;38.92;16.52;;;-4.20;99.90;;;;;;5072021;28;20827;-65
2024/01/10 08:24:46;;;;;;;59.10;27.33;;;-4.20;99.90;;;;;;5039342;28;20127;-65
2024/01/10 08:27:12;;;;;;;57.45;24.98;;;-4.20;99.90;;;;;;5072416;28;20043;-65
2024/01/10 08:29:38;;;;;;;55.40;25.40;;;-4.10;99.90;;;;;;5055338;28;20244;-65
2024/01/10 08:32:04;;;;;;;47.15;22.63;;;-4.10;99.90;;;;;;5055388;28;20059;-64
2024/01/10 08:34:30;;;;;;;43.40;19.67;;;-4.20;99.90;;;;;;5056152;28;20051;-64
2024/01/10 08:36:56;;;;;;;43.10;20.60;;;-4.10;99.90;;;;;;5055834;28;20438;-65
2024/01/10 08:39:24;;;;;;;41.30;20.40;;;-3.90;99.90;;;;;;5042095;28;20422;-65
2024/01/10 08:41:50;;;;;;;48.90;23.95;;;-3.90;99.90;;;;;;5054646;28;20051;-64
2024/01/10 08:44:16;;;;;;;52.60;23.05;;;-4.00;99.90;;;;;;5038751;28;20062;-65
2024/01/10 08:46:41;;;;;;;46.08;22.35;;;-4.00;99.90;;;;;;5072563;28;20040;-64
2024/01/10 08:49:07;;;;;;;51.20;26.95;;;-4.00;99.90;;;;;;5072369;28;20113;-64
2024/01/10 08:51:33;;;;;;;46.72;24.25;;;-3.80;99.90;;;;;;5055246;28;20079;-64
2024/01/10 08:54:00;;;;;;;48.63;22.92;;;-3.90;99.90;;;;;;5071069;28;20618;-65
2024/01/10 08:56:25;;;;;;;42.00;19.70;;;-3.90;99.90;;;;;;5070801;28;20101;-64
2024/01/10 08:58:52;;;;;;;52.17;23.45;;;-3.90;99.90;;;;;;5042112;28;20043;-65
2024/01/10 09:01:18;;;;;;;46.90;24.23;;;-3.90;99.90;;;;;;5053805;28;20448;-63
2024/01/10 09:03:44;;;;;;;52.72;25.05;;;-3.90;99.90;;;;;;5038624;28;20028;-67
2024/01/10 09:06:10;;;;;;;50.53;26.25;;;-3.80;99.90;;;;;;5037587;28;20044;-64
2024/01/10 09:08:36;;;;;;;47.58;22.13;;;-3.80;99.90;;;;;;5036814;28;20399;-64
2024/01/10 09:11:03;;;;;;;41.30;20.60;;;-3.70;99.90;;;;;;5025627;28;20048;-65
2024/01/10 09:13:28;;;;;;;43.67;20.63;;;-3.60;99.90;;;;;;5040754;28;20537;-64
2024/01/10 09:15:54;;;;;;;46.95;24.40;;;-3.50;99.90;;;;;;5070891;28;20055;-65
2024/01/10 09:18:20;;;;;;;48.13;25.20;;;-3.60;99.90;;;;;;5071378;28;20089;-66
2024/01/10 09:20:47;;;;;;;40.85;20.30;;;-3.50;99.90;;;;;;5054110;28;20070;-65
2024/01/10 09:23:14;;;;;;;37.15;18.33;;;-3.60;99.90;;;;;;5070643;28;20172;-66
2024/01/10 09:25:40;;;;;;;46.08;22.35;;;-3.60;99.90;;;;;;5054027;28;20039;-64
2024/01/10 09:28:06;;;;;;;39.70;20.23;;;-3.50;99.90;;;;;;5070139;28;20618;-66
2024/01/10 09:30:32;;;;;;;42.38;21.00;;;-3.40;99.90;;;;;;5070496;28;20260;-64
2024/01/10 09:32:58;;;;;;;40.33;20.25;;;-3.40;99.90;;;;;;5069869;28;20035;-65
2024/01/10 09:35:24;;;;;;;46.72;24.10;;;-3.30;99.90;;;;;;5071773;28;20048;-64
2024/01/10 09:37:50;;;;;;;39.20;19.38;;;-3.30;99.90;;;;;;5036978;28;20032;-66
2024/01/10 09:40:17;;;;;;;39.63;20.90;;;-3.20;99.90;;;;;;5053994;28;20058;-64
2024/01/10 09:42:51;;;;;;;36.20;18.80;;;-3.10;99.90;;;;;;5069929;28;20075;-64
2024/01/10 09:45:17;;;;;;;;;;;-3.10;99.90;;;;;;5055494;28;20040;-65
2024/01/10 09:48:03;;;;;;;33.25;17.25;;;-3.00;99.90;;;;;;5053190;28;20373;-64
2024/01/10 09:50:29;;;;;;;33.30;17.10;;;-2.90;99.90;;;;;;5070169;28;20050;-64
2024/01/10 09:53:06;;;;;;;35.78;17.60;;;-2.80;99.90;;;;;;5070868;28;20077;-65
2024/01/10 09:55:35;;;;;;;32.47;16.35;;;-2.80;99.90;;;;;;5053300;28;20224;-65
2024/01/10 09:58:10;;;;;;;31.63;16.42;;;-2.70;99.90;;;;;;5070202;28;20066;-64
2024/01/10 10:00:37;;;;;;;36.63;21.08;;;-2.70;99.90;;;;;;5071223;28;20102;-64
2024/01/10 10:03:06;;;;;;;34.70;18.80;;;-2.60;99.90;;;;;;5070074;28;20040;-65
2024/01/10 10:05:34;;;;;;;28.63;15.20;;;-2.50;99.90;;;;;;5070850;28;20062;-64
2024/01/10 10:07:59;;;;;;;42.70;22.73;;;-2.50;99.90;;;;;;5071243;28;20068;-65
2024/01/10 10:10:27;;;;;;;28.88;15.32;;;-2.40;99.90;;;;;;5036608;28;20055;-64
2024/01/10 10:12:56;;;;;;;32.95;19.20;;;-2.30;99.90;;;;;;5053025;28;20481;-65
2024/01/10 10:15:27;;;;;;;37.10;21.25;;;-2.30;99.90;;;;;;5070480;28;20126;-66
2024/01/10 10:17:54;;;;;;;36.50;21.02;;;-2.20;99.90;;;;;;5053938;28;20497;-65
2024/01/10 10:20:23;;;;;;;33.03;18.27;;;-1.50;99.90;;;;;;5053647;28;20258;-64
2024/01/10 10:23:01;;;;;;;34.40;19.08;;;-0.60;99.90;;;;;;5074008;28;20700;-64
2024/01/10 10:25:32;;;;;;;34.03;20.33;;;0.00;99.90;;;;;;5080585;27;20440;-63
2024/01/10 10:27:59;;;;;;;30.73;16.02;;;0.70;99.90;;;;;;5074555;28;20404;-64
2024/01/10 10:30:26;;;;;;;28.35;18.23;;;1.00;99.90;;;;;;5075204;28;20525;-65
2024/01/10 10:32:53;;;;;;;24.52;14.00;;;1.30;99.90;;;;;;5073003;28;20047;-64
2024/01/10 10:35:22;;;;;;;28.30;17.77;;;1.40;99.90;;;;;;5038087;28;20048;-65
2024/01/10 10:37:50;;;;;;;27.98;17.63;;;1.60;99.90;;;;;;5075487;28;20348;-66
2024/01/10 10:40:16;;;;;;;28.02;16.05;;;1.80;99.90;;;;;;5074709;28;20428;-64
2024/01/10 10:42:47;;;;;;;24.98;15.73;;;1.90;99.90;;;;;;5057388;28;20051;-65
2024/01/10 10:45:18;;;;;;;27.48;17.15;;;1.90;99.90;;;;;;5074453;28;20181;-64
2024/01/10 10:47:48;;;;;;;28.23;17.83;;;2.00;99.90;;;;;;5073939;28;20070;-64
2024/01/10 10:50:25;;;;;;;26.25;18.05;;;2.10;99.90;;;;;;5056919;28;20044;-63
2024/01/10 10:52:51;;;;;;;28.90;18.42;;;2.10;1.00;;;;;;5056699;28;20043;-65
2024/01/10 10:55:23;;;;;;;29.50;18.52;;;2.40;99.90;;;;;;5061331;28;20050;-66
2024/01/10 10:57:50;;;;;;;22.42;15.18;;;2.60;99.90;;;;;;5056401;28;20262;-65
2024/01/10 11:00:19;;;;;;;25.05;16.77;;;2.70;99.90;;;;;;5073952;28;20071;-65
2024/01/10 11:02:46;;;;;;;25.02;16.10;;;2.70;1.00;;;;;;5073485;28;20559;-65
2024/01/10 11:05:12;;;;;;;22.73;16.27;;;2.80;1.00;;;;;;5056984;28;20050;-66
2024/01/10 11:07:40;;;;;;;26.88;17.80;;;3.00;1.00;;;;;;5056331;28;20051;-65
2024/01/10 11:10:13;;;;;;;26.60;16.98;;;3.10;1.00;;;;;;5073726;28;20387;-66
2024/01/10 11:13:17;;;;;;;29.38;18.63;;;2.90;99.90;;;;;;5076455;27;20050;-66
2024/01/10 11:16:19;;;;;;;25.17;15.65;;;2.80;99.90;;;;;;5057115;28;20401;-65
2024/01/10 11:19:09;;;;;;;25.25;16.33;;;2.70;99.90;;;;;;5056403;28;20055;-65
2024/01/10 11:21:48;;;;;;;24.38;15.45;;;2.90;99.90;;;;;;5073139;28;20078;-65
2024/01/10 11:24:14;;;;;;;23.88;15.90;;;2.80;99.90;;;;;;5076487;27;20032;-65
2024/01/10 11:26:40;;;;;;;22.17;14.77;;;2.60;99.90;;;;;;5056968;28;20044;-65
2024/01/10 11:29:06;;;;;;;23.30;14.88;;;2.60;99.90;;;;;;5056374;28;20039;-66
2024/01/10 11:31:32;;;;;;;24.15;15.38;;;2.70;99.90;;;;;;5072901;28;20340;-66
2024/01/10 11:34:00;;;;;;;23.67;14.70;;;2.90;99.90;;;;;;5054645;28;20425;-66
2024/01/10 11:36:26;;;;;;;21.00;14.90;;;3.10;99.90;;;;;;5073246;28;20235;-66
2024/01/10 11:38:56;;;;;;;21.85;15.25;;;3.20;99.90;;;;;;5073534;28;20046;-66
2024/01/10 11:41:40;;;;;;;22.00;16.40;;;3.50;99.90;;;;;;5072764;28;20123;-65
2024/01/10 11:44:18;;;;;;;22.48;15.85;;;3.50;99.90;;;;;;5073255;28;20063;-64
2024/01/10 11:46:47;;;;;;;21.10;14.70;;;3.80;99.90;;;;;;5073230;28;20115;-64
2024/01/10 11:49:16;;;;;;;24.30;16.65;;;3.80;99.90;;;;;;5057201;28;20036;-65
2024/01/10 11:51:46;;;;;;;21.00;14.43;;;3.90;99.90;;;;;;5072551;28;20559;-65
2024/01/10 11:54:12;;;;;;;23.17;16.35;;;4.10;99.90;;;;;;5056656;28;20066;-64
2024/01/10 11:56:44;;;;;;;20.42;14.32;;;4.20;99.90;;;;;;5038897;28;20538;-64
2024/01/10 11:59:13;;;;;;;22.75;16.05;;;4.30;99.90;;;;;;5055710;28;20698;-67
2024/01/10 12:01:40;;;;;;;21.73;14.73;;;4.20;64.60;;;;;;5055901;28;20047;-66
2024/01/10 12:04:06;;;;;;;21.20;14.70;;;4.20;45.80;;;;;;5072453;28;20042;-65
2024/01/10 12:06:36;;;;;;;22.00;15.32;;;4.50;54.10;;;;;;5080554;27;20103;-65
2024/01/10 12:09:08;;;;;;;23.23;16.33;;;4.70;1.00;;;;;;5058975;28;20051;-65
2024/01/10 12:11:38;;;;;;;21.58;15.88;;;4.90;28.00;;;;;;5081393;27;20035;-65
2024/01/10 12:14:04;;;;;;;22.42;14.32;;;5.10;1.00;;;;;;5058894;27;20549;-64
2024/01/10 12:16:30;;;;;;;21.58;14.70;;;5.10;1.00;;;;;;5058951;27;20215;-65
2024/01/10 12:18:55;;;;;;;22.02;15.05;;;5.40;1.00;;;;;;5058024;28;20039;-66
2024/01/10 12:21:21;;;;;;;18.67;13.57;;;5.70;58.90;;;;;;5059927;27;20224;-65
2024/01/10 12:23:48;;;;;;;22.90;15.30;;;6.10;87.40;;;;;;5057190;28;20035;-65
2024/01/10 12:26:14;;;;;;;21.88;15.50;;;6.20;99.90;;;;;;5058769;28;20271;-66
2024/01/10 12:28:52;;;;;;;20.92;14.05;;;6.20;71.70;;;;;;5042763;27;20088;-65